createdAt,value
2019-02-24T00:02:06.211Z,102420.00
2019-02-24T00:04:48.449Z,102428.00
2019-02-24T00:07:37.941Z,102444.00
2019-02-24T00:10:13.272Z,102443.00
2019-02-24T00:12:49.297Z,102438.00
2019-02-24T00:15:24.832Z,102445.00
2019-02-24T00:18:00.949Z,102444.00
2019-02-24T00:20:36.681Z,102456.00
2019-02-24T00:23:19.161Z,102447.00
2019-02-24T00:25:54.903Z,102443.00
2019-02-24T00:28:37.134Z,102438.00
2019-02-24T00:31:13.022Z,102432.00
2019-02-24T00:33:48.273Z,102442.00
2019-02-24T00:36:24.053Z,102444.00
2019-02-24T00:39:00.115Z,102438.00
2019-02-24T00:41:36.359Z,102448.00
2019-02-24T00:44:11.726Z,102440.00
2019-02-24T00:46:47.476Z,102440.00
2019-02-24T00:49:23.275Z,102443.00
2019-02-24T00:52:05.455Z,102434.00
2019-02-24T00:54:41.493Z,102426.00
2019-02-24T00:57:17.234Z,102431.00
2019-02-24T00:59:53.245Z,102431.00
2019-02-24T01:02:35.497Z,102421.00
2019-02-24T01:05:10.648Z,102415.00
2019-02-24T01:07:46.019Z,102446.00
2019-02-24T01:10:28.748Z,102418.00
2019-02-24T01:13:10.242Z,102415.00
2019-02-24T01:15:52.883Z,102417.00
2019-02-24T01:18:41.125Z,102417.00
2019-02-24T01:21:17.005Z,102402.00
2019-02-24T01:23:59.306Z,102410.00
2019-02-24T01:26:34.644Z,102406.00
2019-02-24T01:29:16.637Z,102400.00
2019-02-24T01:31:51.849Z,102396.00
2019-02-24T01:34:33.634Z,102391.00
2019-02-24T01:37:08.797Z,102394.00
2019-02-24T01:39:44.726Z,102385.00
2019-02-24T01:42:20.320Z,102392.00
2019-02-24T01:45:02.766Z,102372.00
2019-02-24T01:47:38.751Z,102374.00
2019-02-24T01:50:20.513Z,102366.00
2019-02-24T01:52:49.695Z,102364.00
2019-02-24T01:55:31.697Z,102356.00
2019-02-24T01:58:13.708Z,102357.00
2019-02-24T02:00:56.401Z,102339.00
2019-02-24T02:03:37.885Z,102327.00
2019-02-24T02:06:13.694Z,102338.00
2019-02-24T02:08:55.810Z,102333.00
2019-02-24T02:11:31.459Z,102330.00
2019-02-24T02:14:07.451Z,102322.00
2019-02-24T02:16:49.942Z,102323.00
2019-02-24T02:19:25.697Z,102345.00
2019-02-24T02:22:08.294Z,102337.00
2019-02-24T02:24:50.643Z,102327.00
2019-02-24T02:27:26.384Z,102332.00
2019-02-24T02:30:08.775Z,102324.00
2019-02-24T02:32:50.365Z,102330.00
2019-02-24T02:35:26.265Z,102328.00
2019-02-24T02:38:02.280Z,102349.00
2019-02-24T02:40:44.260Z,102323.00
2019-02-24T02:43:19.763Z,102310.00
2019-02-24T02:45:54.999Z,102321.00
2019-02-24T02:48:24.168Z,102309.00
2019-02-24T02:51:06.383Z,102314.00
2019-02-24T02:53:48.959Z,102304.00
2019-02-24T02:56:31.708Z,102310.00
2019-02-24T02:59:07.890Z,102305.00
2019-02-24T03:01:37.053Z,102301.00
2019-02-24T03:04:06.236Z,102303.00
2019-02-24T03:06:52.842Z,102304.00
2019-02-24T03:09:22.011Z,102304.00
2019-02-24T03:11:58.263Z,102297.00
2019-02-24T03:14:27.521Z,102306.00
2019-02-24T03:17:03.428Z,102299.00
2019-02-24T03:19:32.604Z,102299.00
2019-02-24T03:22:08.197Z,102295.00
2019-02-24T03:24:37.369Z,102291.00
2019-02-24T03:27:13.137Z,102291.00
2019-02-24T03:29:48.758Z,102287.00
2019-02-24T03:32:17.918Z,102298.00
2019-02-24T03:34:53.203Z,102301.00
2019-02-24T03:37:29.421Z,102289.00
2019-02-24T03:39:58.600Z,102282.00
2019-02-24T03:42:34.784Z,102305.00
2019-02-24T03:45:12.204Z,102283.00
2019-02-24T03:47:41.378Z,102271.00
2019-02-24T03:50:16.751Z,102278.00
2019-02-24T03:52:52.200Z,102284.00
2019-02-24T03:55:34.998Z,102275.00
2019-02-24T03:58:24.638Z,102284.00
2019-02-24T04:01:00.113Z,102280.00
2019-02-24T04:03:36.266Z,102277.00
2019-02-24T04:06:12.586Z,102275.00
2019-02-24T04:08:47.928Z,102275.00
2019-02-24T04:11:17.105Z,102265.00
2019-02-24T04:13:58.842Z,102255.00
2019-02-24T04:16:33.998Z,102254.00
2019-02-24T04:19:15.878Z,102257.00
2019-02-24T04:21:51.356Z,102254.00
2019-02-24T04:24:33.220Z,102255.00
2019-02-24T04:27:02.452Z,102259.00
2019-02-24T04:29:38.532Z,102251.00
2019-02-24T04:32:20.223Z,102251.00
2019-02-24T04:34:56.388Z,102243.00
2019-02-24T04:37:32.404Z,102234.00
2019-02-24T04:40:15.742Z,102234.00
2019-02-24T04:42:51.646Z,102232.00
2019-02-24T04:45:27.450Z,102232.00
2019-02-24T04:48:02.816Z,102229.00
2019-02-24T04:50:38.409Z,102223.00
2019-02-24T04:53:13.798Z,102221.00
2019-02-24T04:55:55.642Z,102218.00
2019-02-24T04:58:31.707Z,102206.00
2019-02-24T05:01:14.476Z,102198.00
2019-02-24T05:03:50.251Z,102202.00
2019-02-24T05:06:32.081Z,102204.00
2019-02-24T05:09:01.201Z,102204.00
2019-02-24T05:11:43.127Z,102192.00
2019-02-24T05:14:18.948Z,102182.00
2019-02-24T05:17:01.121Z,102181.00
2019-02-24T05:19:43.658Z,102186.00
2019-02-24T05:22:12.836Z,102186.00
2019-02-24T05:24:48.640Z,102193.00
2019-02-24T05:27:30.256Z,102189.00
2019-02-24T05:30:06.299Z,102196.00
2019-02-24T05:32:42.384Z,102191.00
2019-02-24T05:35:17.587Z,102179.00
2019-02-24T05:37:59.248Z,102180.00
2019-02-24T05:40:34.399Z,102184.00
2019-02-24T05:43:10.139Z,102171.00
2019-02-24T05:45:45.838Z,102177.00
2019-02-24T05:48:27.828Z,102178.00
2019-02-24T05:51:09.918Z,102175.00
2019-02-24T05:53:45.397Z,102181.00
2019-02-24T05:56:27.749Z,102174.00
2019-02-24T05:59:03.058Z,102187.00
2019-02-24T06:01:45.055Z,102178.00
2019-02-24T06:04:33.485Z,102167.00
2019-02-24T06:07:09.798Z,102176.00
2019-02-24T06:09:45.238Z,102174.00
2019-02-24T06:12:21.227Z,102177.00
2019-02-24T06:14:57.087Z,102179.00
2019-02-24T06:17:32.585Z,102187.00
2019-02-24T06:20:14.014Z,102198.00
2019-02-24T06:22:56.188Z,102204.00
2019-02-24T06:25:31.456Z,102204.00
2019-02-24T06:28:06.774Z,102204.00
2019-02-24T06:30:48.719Z,102214.00
2019-02-24T06:33:31.237Z,102216.00
2019-02-24T06:36:07.181Z,102225.00
2019-02-24T06:38:43.504Z,102215.00
2019-02-24T06:41:12.672Z,102232.00
2019-02-24T06:43:54.798Z,102220.00
2019-02-24T06:46:30.570Z,102231.00
2019-02-24T06:49:12.965Z,102230.00
2019-02-24T06:51:55.241Z,102222.00
2019-02-24T06:54:37.621Z,102225.00
2019-02-24T06:57:13.134Z,102217.00
2019-02-24T06:59:55.560Z,102223.00
2019-02-24T07:02:38.080Z,102207.00
2019-02-24T07:05:13.283Z,102209.00
2019-02-24T07:07:55.084Z,102191.00
2019-02-24T07:10:30.207Z,102195.00
2019-02-24T07:13:12.240Z,102183.00
2019-02-24T07:15:47.413Z,102190.00
2019-02-24T07:18:23.605Z,102180.00
2019-02-24T07:20:59.140Z,102177.00
2019-02-24T07:23:41.400Z,102166.00
2019-02-24T07:26:17.047Z,102168.00
2019-02-24T07:28:59.871Z,102180.00
2019-02-24T07:31:41.704Z,102182.00
2019-02-24T07:34:16.933Z,102194.00
2019-02-24T07:36:53.138Z,102215.00
2019-02-24T07:39:35.942Z,102203.00
2019-02-24T07:42:11.143Z,102195.00
2019-02-24T07:44:53.693Z,102195.00
2019-02-24T07:47:29.625Z,102194.00
2019-02-24T07:50:05.545Z,102212.00
2019-02-24T07:52:40.748Z,102205.00
2019-02-24T07:55:09.928Z,102197.00
2019-02-24T07:57:52.692Z,102198.00
2019-02-24T08:00:32.280Z,102197.00
2019-02-24T08:03:05.069Z,102190.00
2019-02-24T08:05:41.154Z,102184.00
2019-02-24T08:08:17.163Z,102191.00
2019-02-24T08:10:52.635Z,102173.00
2019-02-24T08:13:28.533Z,102190.00
2019-02-24T08:16:04.314Z,102174.00
2019-02-24T08:18:49.040Z,102178.00
2019-02-24T08:21:17.851Z,102180.00
2019-02-24T08:23:54.055Z,102179.00
2019-02-24T08:26:29.936Z,102190.00
2019-02-24T08:29:05.983Z,102191.00
2019-02-24T08:31:47.503Z,102188.00
2019-02-24T08:34:23.472Z,102183.00
2019-02-24T08:37:04.902Z,102182.00
2019-02-24T08:39:46.865Z,102177.00
2019-02-24T08:42:22.322Z,102190.00
2019-02-24T08:45:04.867Z,102183.00
2019-02-24T08:47:46.824Z,102189.00
2019-02-24T08:50:23.040Z,102185.00
2019-02-24T08:52:58.409Z,102191.00
2019-02-24T08:55:40.284Z,102182.00
2019-02-24T08:58:29.011Z,102184.00
2019-02-24T09:01:10.566Z,102190.00
2019-02-24T09:03:46.626Z,102185.00
2019-02-24T09:06:28.625Z,102180.00
2019-02-24T09:09:04.328Z,102178.00
2019-02-24T09:11:40.221Z,102178.00
2019-02-24T09:14:15.693Z,102176.00
2019-02-24T09:16:57.854Z,102183.00
2019-02-24T09:19:40.073Z,102194.00
2019-02-24T09:22:15.309Z,102185.00
2019-02-24T09:24:57.781Z,102189.00
2019-02-24T09:27:33.101Z,102198.00
2019-02-24T09:30:13.583Z,102190.00
2019-02-24T09:32:49.794Z,102195.00
2019-02-24T09:35:25.243Z,102189.00
2019-02-24T09:38:06.803Z,102191.00
2019-02-24T09:40:42.797Z,102189.00
2019-02-24T09:43:18.976Z,102190.00
2019-02-24T09:45:54.865Z,102196.00
2019-02-24T09:48:37.196Z,102204.00
2019-02-24T09:51:13.212Z,102195.00
2019-02-24T09:53:48.551Z,102200.00
2019-02-24T09:56:36.923Z,102202.00
2019-02-24T09:59:33.577Z,102205.00
2019-02-24T10:02:09.791Z,102206.00
2019-02-24T10:04:53.038Z,102213.00
2019-02-24T10:07:28.545Z,102216.00
2019-02-24T10:10:04.616Z,102224.00
2019-02-24T10:12:40.264Z,102229.00
2019-02-24T10:15:21.195Z,102224.00
2019-02-24T10:17:56.844Z,102233.00
2019-02-24T10:20:39.663Z,102232.00
2019-02-24T10:23:15.728Z,102231.00
2019-02-24T10:25:58.254Z,102236.00
2019-02-24T10:28:40.613Z,102251.00
2019-02-24T10:31:23.223Z,102246.00
2019-02-24T10:33:59.053Z,102247.00
2019-02-24T10:36:41.468Z,102248.00
2019-02-24T10:39:19.559Z,102245.00
2019-02-24T10:42:02.750Z,102248.00
2019-02-24T10:44:39.156Z,102239.00
2019-02-24T10:47:21.760Z,102244.00
2019-02-24T10:49:57.093Z,102255.00
2019-02-24T10:52:39.214Z,102262.00
2019-02-24T10:55:14.443Z,102258.00
2019-02-24T10:57:55.788Z,102250.00
2019-02-24T11:00:37.976Z,102260.00
2019-02-24T11:03:19.675Z,102252.00
2019-02-24T11:05:54.931Z,102248.00
2019-02-24T11:08:30.197Z,102258.00
2019-02-24T11:11:13.284Z,102254.00
2019-02-24T11:13:49.116Z,102251.00
2019-02-24T11:16:24.539Z,102258.00
2019-02-24T11:19:06.948Z,102246.00
2019-02-24T11:21:49.019Z,102252.00
2019-02-24T11:24:24.833Z,102257.00
2019-02-24T11:27:06.997Z,102241.00
2019-02-24T11:29:49.372Z,102242.00
2019-02-24T11:32:24.795Z,102250.00
2019-02-24T11:35:06.906Z,102247.00
2019-02-24T11:37:42.918Z,102248.00
2019-02-24T11:40:31.411Z,102254.00
2019-02-24T11:43:15.462Z,102260.00
2019-02-24T11:45:50.804Z,102246.00
2019-02-24T11:48:26.792Z,102239.00
2019-02-24T11:51:09.303Z,102233.00
2019-02-24T11:53:51.277Z,102236.00
2019-02-24T11:56:26.544Z,102245.00
2019-02-24T11:59:09.111Z,102241.00
2019-02-24T12:01:50.905Z,102231.00
2019-02-24T12:04:26.301Z,102229.00
2019-02-24T12:07:01.599Z,102224.00
2019-02-24T12:09:44.221Z,102235.00
2019-02-24T12:12:22.158Z,102233.00
2019-02-24T12:14:57.403Z,102241.00
2019-02-24T12:17:39.579Z,102238.00
2019-02-24T12:20:18.178Z,102243.00
2019-02-24T12:23:09.546Z,102226.00
2019-02-24T12:25:52.242Z,102226.00
2019-02-24T12:28:29.008Z,102235.00
2019-02-24T12:31:11.145Z,102225.00
2019-02-24T12:33:46.797Z,102230.00
2019-02-24T12:36:28.806Z,102142.00
2019-02-24T12:39:07.397Z,102231.00
2019-02-24T12:41:42.806Z,102247.00
2019-02-24T12:44:18.982Z,102233.00
2019-02-24T12:47:00.914Z,102243.00
2019-02-24T12:49:36.833Z,102239.00
2019-02-24T12:52:20.687Z,102238.00
2019-02-24T12:55:03.062Z,102242.00
2019-02-24T12:57:39.252Z,102245.00
2019-02-24T13:00:15.063Z,102241.00
2019-02-24T13:02:51.506Z,102227.00
2019-02-24T13:05:27.504Z,102223.00
2019-02-24T13:08:09.423Z,102223.00
2019-02-24T13:10:45.201Z,102218.00
2019-02-24T13:13:21.263Z,102225.00
2019-02-24T13:16:03.246Z,102230.00
2019-02-24T13:18:46.150Z,102232.00
2019-02-24T13:21:24.602Z,102221.00
2019-02-24T13:24:00.138Z,102211.00
2019-02-24T13:26:42.283Z,102205.00
2019-02-24T13:29:18.152Z,102201.00
2019-02-24T13:32:00.642Z,102198.00
2019-02-24T13:34:35.991Z,102193.00
2019-02-24T13:37:05.208Z,102204.00
2019-02-24T13:39:41.459Z,102208.00
2019-02-24T13:42:17.049Z,102202.00
2019-02-24T13:44:52.522Z,102204.00
2019-02-24T13:47:35.110Z,102204.00
2019-02-24T13:50:17.320Z,102199.00
2019-02-24T13:52:53.081Z,102205.00
2019-02-24T13:55:29.527Z,102206.00
2019-02-24T13:58:12.411Z,102196.00
2019-02-24T14:00:54.805Z,102185.00
2019-02-24T14:03:37.085Z,102183.00
2019-02-24T14:06:13.265Z,102188.00
2019-02-24T14:08:49.420Z,102184.00
2019-02-24T14:11:25.407Z,102178.00
2019-02-24T14:14:07.194Z,102179.00
2019-02-24T14:16:42.970Z,102176.00
2019-02-24T14:19:25.333Z,102165.00
2019-02-24T14:21:54.517Z,102174.00
2019-02-24T14:24:44.136Z,102181.00
2019-02-24T14:27:33.262Z,102181.00
2019-02-24T14:30:18.755Z,102169.00
2019-02-24T14:33:01.311Z,102168.00
2019-02-24T14:35:36.759Z,102179.00
2019-02-24T14:38:19.549Z,102186.00
2019-02-24T14:40:54.964Z,102203.00
2019-02-24T14:43:37.247Z,102200.00
2019-02-24T14:46:13.278Z,102197.00
2019-02-24T14:48:55.787Z,102197.00
2019-02-24T14:51:31.496Z,102200.00
2019-02-24T14:54:13.780Z,102202.00
2019-02-24T14:56:55.891Z,102194.00
2019-02-24T14:59:32.082Z,102209.00
2019-02-24T15:02:07.781Z,102205.00
2019-02-24T15:04:43.582Z,102194.00
2019-02-24T15:07:19.425Z,102191.00
2019-02-24T15:10:01.905Z,102202.00
2019-02-24T15:12:31.368Z,102205.00
2019-02-24T15:15:13.009Z,102204.00
2019-02-24T15:18:02.366Z,102199.00
2019-02-24T15:20:38.882Z,102208.00
2019-02-24T15:23:21.099Z,102193.00
2019-02-24T15:25:56.733Z,102196.00
2019-02-24T15:28:38.609Z,102193.00
2019-02-24T15:31:16.458Z,102188.00
2019-02-24T15:33:58.722Z,102187.00
2019-02-24T15:36:35.776Z,102187.00
2019-02-24T15:39:17.774Z,102194.00
2019-02-24T15:41:53.694Z,102192.00
2019-02-24T15:44:35.529Z,102181.00
2019-02-24T15:47:11.206Z,102171.00
2019-02-24T15:49:54.024Z,102174.00
2019-02-24T15:52:29.512Z,102175.00
2019-02-24T15:55:11.665Z,102181.00
2019-02-24T15:57:54.840Z,102169.00
2019-02-24T16:00:38.441Z,102172.00
2019-02-24T16:03:13.860Z,102164.00
2019-02-24T16:05:56.137Z,102166.00
2019-02-24T16:08:37.997Z,102163.00
2019-02-24T16:11:20.733Z,102164.00
2019-02-24T16:13:56.656Z,102165.00
2019-02-24T16:16:38.843Z,102151.00
2019-02-24T16:19:14.163Z,102158.00
2019-02-24T16:21:50.082Z,102156.00
2019-02-24T16:24:25.843Z,102145.00
2019-02-24T16:27:02.068Z,102144.00
2019-02-24T16:29:37.941Z,102145.00
2019-02-24T16:32:19.871Z,102131.00
2019-02-24T16:34:56.579Z,102141.00
2019-02-24T16:37:32.376Z,102147.00
2019-02-24T16:40:09.074Z,102145.00
2019-02-24T16:42:44.606Z,102133.00
2019-02-24T16:45:26.746Z,102126.00
2019-02-24T16:48:02.079Z,102133.00
2019-02-24T16:50:37.851Z,102125.00
2019-02-24T16:53:14.040Z,102129.00
2019-02-24T16:55:49.524Z,102135.00
2019-02-24T16:58:25.665Z,102119.00
2019-02-24T17:01:02.307Z,102119.00
2019-02-24T17:03:43.721Z,102125.00
2019-02-24T17:06:19.156Z,102126.00
2019-02-24T17:09:03.312Z,102130.00
2019-02-24T17:11:38.927Z,102131.00
2019-02-24T17:14:24.761Z,102134.00
2019-02-24T17:17:01.845Z,102131.00
2019-02-24T17:19:38.110Z,102129.00
2019-02-24T17:22:20.619Z,102119.00
2019-02-24T17:24:56.429Z,102131.00
2019-02-24T17:27:38.936Z,102114.00
2019-02-24T17:30:12.393Z,102132.00
2019-02-24T17:32:53.880Z,102118.00
2019-02-24T17:35:30.093Z,102109.00
2019-02-24T17:38:13.384Z,102102.00
2019-02-24T17:40:56.037Z,102109.00
2019-02-24T17:43:25.241Z,102103.00
2019-02-24T17:46:07.424Z,102101.00
2019-02-24T17:48:49.926Z,102103.00
2019-02-24T17:51:25.738Z,102098.00
2019-02-24T17:54:01.388Z,102104.00
2019-02-24T17:56:44.338Z,102094.00
2019-02-24T17:59:19.576Z,102104.00
2019-02-24T18:02:02.125Z,102098.00
2019-02-24T18:04:31.325Z,102101.00
2019-02-24T18:07:07.443Z,102094.00
2019-02-24T18:09:43.130Z,102085.00
2019-02-24T18:12:25.883Z,102086.00
2019-02-24T18:15:08.994Z,102096.00
2019-02-24T18:17:50.880Z,102093.00
2019-02-24T18:20:26.154Z,102086.00
2019-02-24T18:23:08.328Z,102086.00
2019-02-24T18:25:44.123Z,102091.00
2019-02-24T18:28:26.578Z,102072.00
2019-02-24T18:31:02.691Z,102078.00
2019-02-24T18:33:38.655Z,102081.00
2019-02-24T18:36:14.996Z,102072.00
2019-02-24T18:38:57.301Z,102070.00
2019-02-24T18:41:32.642Z,102058.00
2019-02-24T18:44:08.317Z,102063.00
2019-02-24T18:46:44.149Z,102048.00
2019-02-24T18:49:21.276Z,102045.00
2019-02-24T18:51:58.966Z,102045.00
2019-02-24T18:54:34.971Z,102035.00
2019-02-24T18:57:10.637Z,102036.00
2019-02-24T18:59:53.665Z,102036.00
2019-02-24T19:02:29.134Z,102047.00
2019-02-24T19:05:11.854Z,102044.00
2019-02-24T19:07:47.649Z,102043.00
2019-02-24T19:10:30.909Z,102045.00
2019-02-24T19:13:00.206Z,102038.00
2019-02-24T19:15:36.419Z,102042.00
2019-02-24T19:18:12.653Z,102048.00
2019-02-24T19:20:54.746Z,102043.00
2019-02-24T19:23:37.548Z,102045.00
2019-02-24T19:26:21.387Z,102060.00
2019-02-24T19:28:58.371Z,102056.00
2019-02-24T19:31:33.900Z,102064.00
2019-02-24T19:34:09.641Z,102053.00
2019-02-24T19:36:52.035Z,102061.00
2019-02-24T19:39:34.398Z,102067.00
2019-02-24T19:42:09.896Z,102061.00
2019-02-24T19:44:45.348Z,102055.00
2019-02-24T19:47:27.753Z,102052.00
2019-02-24T19:50:03.003Z,102041.00
2019-02-24T19:52:45.499Z,102050.00
2019-02-24T19:55:22.046Z,102042.00
2019-02-24T19:58:04.634Z,102040.00
2019-02-24T20:00:40.256Z,102039.00
2019-02-24T20:03:22.578Z,102034.00
2019-02-24T20:06:05.088Z,102045.00
2019-02-24T20:08:41.025Z,102032.00
2019-02-24T20:11:23.213Z,102072.00
2019-02-24T20:13:52.427Z,102026.00
2019-02-24T20:16:34.732Z,102024.00
2019-02-24T20:19:10.442Z,102047.00
2019-02-24T20:21:45.863Z,102030.00
2019-02-24T20:24:32.977Z,102041.00
2019-02-24T20:27:04.984Z,102031.00
2019-02-24T20:29:47.728Z,102041.00
2019-02-24T20:32:16.908Z,102043.00
2019-02-24T20:34:59.781Z,102057.00
2019-02-24T20:37:35.757Z,102054.00
2019-02-24T20:40:21.458Z,102070.00
2019-02-24T20:42:57.550Z,102074.00
2019-02-24T20:45:34.074Z,102075.00
2019-02-24T20:48:03.274Z,102073.00
2019-02-24T20:50:51.118Z,102074.00
2019-02-24T20:53:20.328Z,102068.00
2019-02-24T20:56:02.528Z,102062.00
2019-02-24T20:58:44.131Z,102067.00
2019-02-24T21:01:20.399Z,102056.00
2019-02-24T21:03:49.567Z,102071.00
2019-02-24T21:06:25.463Z,102079.00
2019-02-24T21:09:06.879Z,102062.00
2019-02-24T21:11:43.189Z,102065.00
2019-02-24T21:14:19.367Z,102067.00
2019-02-24T21:16:55.536Z,102066.00
2019-02-24T21:19:31.811Z,102074.00
2019-02-24T21:22:07.960Z,102075.00
2019-02-24T21:24:44.048Z,102079.00
2019-02-24T21:27:25.661Z,102077.00
2019-02-24T21:30:00.950Z,102089.00
2019-02-24T21:32:43.394Z,102084.00
2019-02-24T21:35:18.620Z,102081.00
2019-02-24T21:38:01.046Z,102080.00
2019-02-24T21:40:37.154Z,102082.00
2019-02-24T21:43:19.534Z,102077.00
2019-02-24T21:45:55.550Z,102077.00
2019-02-24T21:48:31.402Z,102079.00
2019-02-24T21:51:06.663Z,102076.00
2019-02-24T21:53:41.939Z,102079.00
2019-02-24T21:56:17.255Z,102080.00
2019-02-24T21:58:53.372Z,102078.00
2019-02-24T22:01:35.684Z,102080.00
2019-02-24T22:04:11.438Z,102073.00
2019-02-24T22:06:54.029Z,102071.00
2019-02-24T22:09:36.332Z,102067.00
2019-02-24T22:12:12.434Z,102069.00
2019-02-24T22:14:54.000Z,102081.00
2019-02-24T22:17:29.509Z,102076.00
2019-02-24T22:20:20.674Z,102072.00
2019-02-24T22:23:03.614Z,102076.00
2019-02-24T22:25:39.607Z,102085.00
2019-02-24T22:28:14.869Z,102086.00
2019-02-24T22:30:50.599Z,102088.00
2019-02-24T22:33:19.793Z,102093.00
2019-02-24T22:35:55.455Z,102099.00
2019-02-24T22:38:31.669Z,102083.00
2019-02-24T22:41:00.862Z,102079.00
2019-02-24T22:43:37.101Z,102070.00
2019-02-24T22:46:12.704Z,102085.00
2019-02-24T22:48:48.256Z,102090.00
2019-02-24T22:51:24.146Z,102094.00
2019-02-24T22:54:07.198Z,102093.00
2019-02-24T22:56:49.552Z,102091.00
2019-02-24T22:59:30.798Z,102093.00
2019-02-24T23:02:13.163Z,102101.00
2019-02-24T23:04:42.338Z,102103.00
2019-02-24T23:07:11.520Z,102090.00
2019-02-24T23:09:47.690Z,102092.00
2019-02-24T23:12:23.365Z,102082.00
2019-02-24T23:14:58.693Z,102077.00
2019-02-24T23:17:41.468Z,102111.00
2019-02-24T23:20:10.712Z,102081.00
2019-02-24T23:22:39.891Z,102075.00
2019-02-24T23:25:15.413Z,102069.00
2019-02-24T23:27:57.065Z,102073.00
2019-02-24T23:30:32.884Z,102064.00
2019-02-24T23:33:15.293Z,102077.00
2019-02-24T23:35:50.752Z,102074.00
2019-02-24T23:38:19.935Z,102073.00
2019-02-24T23:41:02.441Z,102077.00
2019-02-24T23:43:38.358Z,102065.00
2019-02-24T23:46:20.642Z,102067.00
2019-02-24T23:48:56.363Z,102060.00
2019-02-24T23:51:38.731Z,102059.00
2019-02-24T23:54:07.902Z,102050.00
2019-02-24T23:56:43.687Z,102056.00
2019-02-24T23:59:19.247Z,102061.00
